Bay City, Michigan
Current Conditions -  °F | °C
As of 6:53 PM on Monday 22 Dec 2014 (Local Time) from KMBS Reporting Station
Overcast Overcast  
Wind Chill: 28°   Ceiling: 8500
Heat Index: 35°   Visibility: 9mi
Dew Point: 29°   Wind: 9mph
Humidity: 78%   Direction: 90°E
Pressure: 29.94"   Gusts: NA
Location:  43.6°N, 83.88°W
Report Text: KMBS 222353Z 09008KT 9SM FEW043 SCT050 OVC085 02/M02 A2994 RMK AO2 SLP146 T00171017 10039 20017 55003
Loading
Personal Weather Stations






























Interactive Weather Map New forecast layout! Learn more

10-Day Weather Forecast

Advertisements
Track Severe Weather on mobile